sensor_id;sensor_type;location;lat;lon;timestamp;temperature;humidity
32612;DHT22;19030;49.478;8.986;2022-07-11T00:00:14;16.30;99.90
32612;DHT22;19030;49.478;8.986;2022-07-11T00:02:15;16.30;99.90
32612;DHT22;19030;49.478;8.986;2022-07-11T00:04:16;16.20;99.90
32612;DHT22;19030;49.478;8.986;2022-07-11T00:06:16;16.20;99.90
32612;DHT22;19030;49.478;8.986;2022-07-11T00:08:17;16.20;99.90
32612;DHT22;19030;49.478;8.986;2022-07-11T00:10:17;16.10;99.90
32612;DHT22;19030;49.478;8.986;2022-07-11T00:12:18;16.10;99.90
32612;DHT22;19030;49.478;8.986;2022-07-11T00:14:21;16.10;99.90
32612;DHT22;19030;49.478;8.986;2022-07-11T00:16:22;16.00;99.90
32612;DHT22;19030;49.478;8.986;2022-07-11T00:18:22;16.00;99.90
32612;DHT22;19030;49.478;8.986;2022-07-11T00:20:24;16.00;99.90
32612;DHT22;19030;49.478;8.986;2022-07-11T00:22:24;15.90;99.90
32612;DHT22;19030;49.478;8.986;2022-07-11T00:24:25;15.90;99.90
32612;DHT22;19030;49.478;8.986;2022-07-11T00:26:26;15.90;99.90
32612;DHT22;19030;49.478;8.986;2022-07-11T00:28:27;15.90;99.90
32612;DHT22;19030;49.478;8.986;2022-07-11T00:30:28;15.90;99.90
32612;DHT22;19030;49.478;8.986;2022-07-11T00:32:28;15.90;99.90
32612;DHT22;19030;49.478;8.986;2022-07-11T00:34:29;15.90;99.90
32612;DHT22;19030;49.478;8.986;2022-07-11T00:36:30;15.90;99.90
32612;DHT22;19030;49.478;8.986;2022-07-11T00:38:31;15.90;99.90
32612;DHT22;19030;49.478;8.986;2022-07-11T00:40:32;15.90;99.90
32612;DHT22;19030;49.478;8.986;2022-07-11T00:42:32;15.90;99.90
32612;DHT22;19030;49.478;8.986;2022-07-11T00:44:33;15.90;99.90
32612;DHT22;19030;49.478;8.986;2022-07-11T00:46:36;15.90;99.90
32612;DHT22;19030;49.478;8.986;2022-07-11T00:48:37;15.90;99.90
32612;DHT22;19030;49.478;8.986;2022-07-11T00:50:37;15.90;99.90
32612;DHT22;19030;49.478;8.986;2022-07-11T00:52:40;15.90;99.90
32612;DHT22;19030;49.478;8.986;2022-07-11T00:54:40;15.90;99.90
32612;DHT22;19030;49.478;8.986;2022-07-11T00:56:41;15.90;99.90
32612;DHT22;19030;49.478;8.986;2022-07-11T00:58:42;15.90;99.90
32612;DHT22;19030;49.478;8.986;2022-07-11T01:00:44;15.90;99.90
32612;DHT22;19030;49.478;8.986;2022-07-11T01:02:45;15.90;99.90
32612;DHT22;19030;49.478;8.986;2022-07-11T01:04:45;15.90;99.90
32612;DHT22;19030;49.478;8.986;2022-07-11T01:06:46;15.90;99.90
32612;DHT22;19030;49.478;8.986;2022-07-11T01:08:47;15.90;99.90
32612;DHT22;19030;49.478;8.986;2022-07-11T01:10:47;15.90;99.90
32612;DHT22;19030;49.478;8.986;2022-07-11T01:12:48;15.90;99.90
32612;DHT22;19030;49.478;8.986;2022-07-11T01:14:53;15.90;99.90
32612;DHT22;19030;49.478;8.986;2022-07-11T01:16:54;15.90;99.90
32612;DHT22;19030;49.478;8.986;2022-07-11T01:18:55;15.90;99.90
32612;DHT22;19030;49.478;8.986;2022-07-11T01:20:55;15.90;99.90
32612;DHT22;19030;49.478;8.986;2022-07-11T01:23:06;15.90;99.90
32612;DHT22;19030;49.478;8.986;2022-07-11T01:25:07;15.90;99.90
32612;DHT22;19030;49.478;8.986;2022-07-11T01:27:07;15.90;99.90
32612;DHT22;19030;49.478;8.986;2022-07-11T01:29:13;15.90;99.90
32612;DHT22;19030;49.478;8.986;2022-07-11T01:31:14;15.90;99.90
32612;DHT22;19030;49.478;8.986;2022-07-11T01:33:14;15.90;99.90
32612;DHT22;19030;49.478;8.986;2022-07-11T01:35:15;15.90;99.90
32612;DHT22;19030;49.478;8.986;2022-07-11T01:37:16;15.90;99.90
32612;DHT22;19030;49.478;8.986;2022-07-11T01:39:16;15.90;99.90
32612;DHT22;19030;49.478;8.986;2022-07-11T01:41:17;15.90;99.90
32612;DHT22;19030;49.478;8.986;2022-07-11T01:43:17;15.90;99.90
32612;DHT22;19030;49.478;8.986;2022-07-11T01:45:18;15.90;99.90
32612;DHT22;19030;49.478;8.986;2022-07-11T01:47:18;15.90;99.90
32612;DHT22;19030;49.478;8.986;2022-07-11T01:49:19;15.90;99.90
32612;DHT22;19030;49.478;8.986;2022-07-11T01:51:19;15.80;99.90
32612;DHT22;19030;49.478;8.986;2022-07-11T01:53:20;15.90;99.90
32612;DHT22;19030;49.478;8.986;2022-07-11T01:55:20;15.80;99.90
32612;DHT22;19030;49.478;8.986;2022-07-11T01:57:21;15.90;99.90
32612;DHT22;19030;49.478;8.986;2022-07-11T01:59:22;15.90;99.90
32612;DHT22;19030;49.478;8.986;2022-07-11T02:01:22;15.90;99.90
32612;DHT22;19030;49.478;8.986;2022-07-11T02:03:23;15.80;99.90
32612;DHT22;19030;49.478;8.986;2022-07-11T02:05:23;15.80;99.90
32612;DHT22;19030;49.478;8.986;2022-07-11T02:07:24;15.80;99.90
32612;DHT22;19030;49.478;8.986;2022-07-11T02:09:47;15.80;99.90
32612;DHT22;19030;49.478;8.986;2022-07-11T02:11:48;15.70;99.90
32612;DHT22;19030;49.478;8.986;2022-07-11T02:13:48;15.80;99.90
32612;DHT22;19030;49.478;8.986;2022-07-11T02:15:49;15.80;99.90
32612;DHT22;19030;49.478;8.986;2022-07-11T02:17:51;15.70;99.90
32612;DHT22;19030;49.478;8.986;2022-07-11T02:19:52;15.70;99.90
32612;DHT22;19030;49.478;8.986;2022-07-11T02:21:53;15.70;99.90
32612;DHT22;19030;49.478;8.986;2022-07-11T02:23:54;15.70;99.90
32612;DHT22;19030;49.478;8.986;2022-07-11T02:25:55;15.70;99.90
32612;DHT22;19030;49.478;8.986;2022-07-11T02:27:56;15.70;99.90
32612;DHT22;19030;49.478;8.986;2022-07-11T02:29:56;15.70;99.90
32612;DHT22;19030;49.478;8.986;2022-07-11T02:31:57;15.70;99.90
32612;DHT22;19030;49.478;8.986;2022-07-11T02:33:57;15.70;99.90
32612;DHT22;19030;49.478;8.986;2022-07-11T02:35:58;15.70;99.90
32612;DHT22;19030;49.478;8.986;2022-07-11T02:38:00;15.70;99.90
32612;DHT22;19030;49.478;8.986;2022-07-11T02:40:02;15.70;99.90
32612;DHT22;19030;49.478;8.986;2022-07-11T02:42:03;15.70;99.90
32612;DHT22;19030;49.478;8.986;2022-07-11T02:44:03;15.70;99.90
32612;DHT22;19030;49.478;8.986;2022-07-11T02:46:04;15.70;99.90
32612;DHT22;19030;49.478;8.986;2022-07-11T02:48:05;15.70;99.90
32612;DHT22;19030;49.478;8.986;2022-07-11T02:50:09;15.60;99.90
32612;DHT22;19030;49.478;8.986;2022-07-11T02:52:10;15.60;99.90
32612;DHT22;19030;49.478;8.986;2022-07-11T02:54:11;15.60;99.90
32612;DHT22;19030;49.478;8.986;2022-07-11T02:56:11;15.60;99.90
32612;DHT22;19030;49.478;8.986;2022-07-11T02:58:13;15.60;99.90
32612;DHT22;19030;49.478;8.986;2022-07-11T03:00:16;15.60;99.90
32612;DHT22;19030;49.478;8.986;2022-07-11T03:02:17;15.60;99.90
32612;DHT22;19030;49.478;8.986;2022-07-11T03:04:18;15.60;99.90
32612;DHT22;19030;49.478;8.986;2022-07-11T03:06:18;15.60;99.90
32612;DHT22;19030;49.478;8.986;2022-07-11T03:08:19;15.60;99.90
32612;DHT22;19030;49.478;8.986;2022-07-11T03:10:19;15.60;99.90
32612;DHT22;19030;49.478;8.986;2022-07-11T03:12:20;15.60;99.90
32612;DHT22;19030;49.478;8.986;2022-07-11T03:14:21;15.60;99.90
32612;DHT22;19030;49.478;8.986;2022-07-11T03:16:21;15.60;99.90
32612;DHT22;19030;49.478;8.986;2022-07-11T03:18:22;15.60;99.90
32612;DHT22;19030;49.478;8.986;2022-07-11T03:20:23;15.60;99.90
32612;DHT22;19030;49.478;8.986;2022-07-11T03:22:23;15.60;99.90
32612;DHT22;19030;49.478;8.986;2022-07-11T03:24:24;15.50;99.90
32612;DHT22;19030;49.478;8.986;2022-07-11T03:26:25;15.50;99.90
32612;DHT22;19030;49.478;8.986;2022-07-11T03:28:26;15.60;99.90
32612;DHT22;19030;49.478;8.986;2022-07-11T03:30:27;15.60;99.90
32612;DHT22;19030;49.478;8.986;2022-07-11T03:32:28;15.60;99.90
32612;DHT22;19030;49.478;8.986;2022-07-11T03:34:28;15.60;99.90
32612;DHT22;19030;49.478;8.986;2022-07-11T03:36:29;15.50;99.90
32612;DHT22;19030;49.478;8.986;2022-07-11T03:38:29;15.50;99.90
32612;DHT22;19030;49.478;8.986;2022-07-11T03:40:30;15.50;99.90
32612;DHT22;19030;49.478;8.986;2022-07-11T03:42:30;15.50;99.90
32612;DHT22;19030;49.478;8.986;2022-07-11T03:44:31;15.50;99.90
32612;DHT22;19030;49.478;8.986;2022-07-11T03:46:31;15.50;99.90
32612;DHT22;19030;49.478;8.986;2022-07-11T03:48:32;15.60;99.90
32612;DHT22;19030;49.478;8.986;2022-07-11T03:50:34;15.50;99.90
32612;DHT22;19030;49.478;8.986;2022-07-11T03:52:34;15.60;99.90
32612;DHT22;19030;49.478;8.986;2022-07-11T03:54:35;15.60;99.90
32612;DHT22;19030;49.478;8.986;2022-07-11T03:56:35;15.60;99.90
32612;DHT22;19030;49.478;8.986;2022-07-11T03:58:36;15.60;99.90
32612;DHT22;19030;49.478;8.986;2022-07-11T04:00:36;15.60;99.90
32612;DHT22;19030;49.478;8.986;2022-07-11T04:02:37;15.60;99.90
32612;DHT22;19030;49.478;8.986;2022-07-11T04:04:38;15.60;99.90
32612;DHT22;19030;49.478;8.986;2022-07-11T04:06:38;15.60;99.90
32612;DHT22;19030;49.478;8.986;2022-07-11T04:08:39;15.60;99.90
32612;DHT22;19030;49.478;8.986;2022-07-11T04:10:39;15.60;99.90
32612;DHT22;19030;49.478;8.986;2022-07-11T04:12:40;15.70;99.90
32612;DHT22;19030;49.478;8.986;2022-07-11T04:14:41;15.70;99.90
32612;DHT22;19030;49.478;8.986;2022-07-11T04:16:41;15.70;99.90
32612;DHT22;19030;49.478;8.986;2022-07-11T04:18:42;15.70;99.90
32612;DHT22;19030;49.478;8.986;2022-07-11T04:20:42;15.70;99.90
32612;DHT22;19030;49.478;8.986;2022-07-11T04:22:43;15.70;99.90
32612;DHT22;19030;49.478;8.986;2022-07-11T04:24:43;15.70;99.90
32612;DHT22;19030;49.478;8.986;2022-07-11T04:26:44;15.70;99.90
32612;DHT22;19030;49.478;8.986;2022-07-11T04:28:44;15.70;99.90
32612;DHT22;19030;49.478;8.986;2022-07-11T04:30:45;15.80;99.90
32612;DHT22;19030;49.478;8.986;2022-07-11T04:32:45;15.80;99.90
32612;DHT22;19030;49.478;8.986;2022-07-11T04:34:46;15.80;99.90
32612;DHT22;19030;49.478;8.986;2022-07-11T04:36:47;15.80;99.90
32612;DHT22;19030;49.478;8.986;2022-07-11T04:38:47;15.80;99.90
32612;DHT22;19030;49.478;8.986;2022-07-11T04:40:50;15.80;99.90
32612;DHT22;19030;49.478;8.986;2022-07-11T04:42:50;15.80;99.90
32612;DHT22;19030;49.478;8.986;2022-07-11T04:44:52;15.80;99.90
32612;DHT22;19030;49.478;8.986;2022-07-11T04:46:53;15.80;99.90
32612;DHT22;19030;49.478;8.986;2022-07-11T04:48:53;15.80;99.90
32612;DHT22;19030;49.478;8.986;2022-07-11T04:50:54;15.80;99.90
32612;DHT22;19030;49.478;8.986;2022-07-11T04:52:54;15.80;99.90
32612;DHT22;19030;49.478;8.986;2022-07-11T04:54:55;15.80;99.90
32612;DHT22;19030;49.478;8.986;2022-07-11T04:56:55;15.80;99.90
32612;DHT22;19030;49.478;8.986;2022-07-11T04:58:56;15.90;99.90
32612;DHT22;19030;49.478;8.986;2022-07-11T05:00:58;15.90;99.90
32612;DHT22;19030;49.478;8.986;2022-07-11T05:02:59;15.90;99.90
32612;DHT22;19030;49.478;8.986;2022-07-11T05:04:59;15.90;99.90
32612;DHT22;19030;49.478;8.986;2022-07-11T05:07:00;16.00;99.90
32612;DHT22;19030;49.478;8.986;2022-07-11T05:09:01;16.00;99.90
32612;DHT22;19030;49.478;8.986;2022-07-11T05:11:05;16.00;99.90
32612;DHT22;19030;49.478;8.986;2022-07-11T05:13:05;16.10;99.90
32612;DHT22;19030;49.478;8.986;2022-07-11T05:15:06;16.10;99.90
32612;DHT22;19030;49.478;8.986;2022-07-11T05:17:07;16.10;99.90
32612;DHT22;19030;49.478;8.986;2022-07-11T05:19:07;16.10;99.90
32612;DHT22;19030;49.478;8.986;2022-07-11T05:21:08;16.10;99.90
32612;DHT22;19030;49.478;8.986;2022-07-11T05:23:09;16.10;99.90
32612;DHT22;19030;49.478;8.986;2022-07-11T05:25:09;16.10;99.90
32612;DHT22;19030;49.478;8.986;2022-07-11T05:27:10;16.10;99.90
32612;DHT22;19030;49.478;8.986;2022-07-11T05:29:10;16.10;99.90
32612;DHT22;19030;49.478;8.986;2022-07-11T05:31:11;16.10;99.90
32612;DHT22;19030;49.478;8.986;2022-07-11T05:33:12;16.20;99.90
32612;DHT22;19030;49.478;8.986;2022-07-11T05:35:12;16.20;99.90
32612;DHT22;19030;49.478;8.986;2022-07-11T05:37:13;16.30;99.90
32612;DHT22;19030;49.478;8.986;2022-07-11T05:39:13;16.30;99.90
32612;DHT22;19030;49.478;8.986;2022-07-11T05:41:15;16.30;99.90
32612;DHT22;19030;49.478;8.986;2022-07-11T05:43:16;16.40;99.90
32612;DHT22;19030;49.478;8.986;2022-07-11T05:45:16;16.40;99.90
32612;DHT22;19030;49.478;8.986;2022-07-11T05:47:17;16.40;99.90
32612;DHT22;19030;49.478;8.986;2022-07-11T05:49:18;16.50;99.90
32612;DHT22;19030;49.478;8.986;2022-07-11T05:51:18;16.60;99.90
32612;DHT22;19030;49.478;8.986;2022-07-11T05:53:19;16.70;99.90
32612;DHT22;19030;49.478;8.986;2022-07-11T05:55:19;16.80;99.90
32612;DHT22;19030;49.478;8.986;2022-07-11T05:57:20;16.90;99.90
32612;DHT22;19030;49.478;8.986;2022-07-11T05:59:21;17.10;99.90
32612;DHT22;19030;49.478;8.986;2022-07-11T06:01:22;17.10;99.90
32612;DHT22;19030;49.478;8.986;2022-07-11T06:03:22;17.30;99.90
32612;DHT22;19030;49.478;8.986;2022-07-11T06:05:23;17.40;99.90
32612;DHT22;19030;49.478;8.986;2022-07-11T06:07:23;17.40;99.90
32612;DHT22;19030;49.478;8.986;2022-07-11T06:09:42;17.50;99.90
32612;DHT22;19030;49.478;8.986;2022-07-11T06:11:43;17.60;99.90
32612;DHT22;19030;49.478;8.986;2022-07-11T06:13:44;17.70;99.90
32612;DHT22;19030;49.478;8.986;2022-07-11T06:15:45;17.70;99.90
32612;DHT22;19030;49.478;8.986;2022-07-11T06:17:47;17.90;99.90
32612;DHT22;19030;49.478;8.986;2022-07-11T06:19:47;18.10;99.90
32612;DHT22;19030;49.478;8.986;2022-07-11T06:21:49;18.20;99.90
32612;DHT22;19030;49.478;8.986;2022-07-11T06:23:50;18.20;99.90
32612;DHT22;19030;49.478;8.986;2022-07-11T06:25:50;18.30;99.90
32612;DHT22;19030;49.478;8.986;2022-07-11T06:27:51;18.40;99.90
32612;DHT22;19030;49.478;8.986;2022-07-11T06:29:51;18.40;99.90
32612;DHT22;19030;49.478;8.986;2022-07-11T06:31:52;18.60;99.90
32612;DHT22;19030;49.478;8.986;2022-07-11T06:33:53;18.60;99.90
32612;DHT22;19030;49.478;8.986;2022-07-11T06:35:57;18.70;99.90
32612;DHT22;19030;49.478;8.986;2022-07-11T06:37:58;18.80;99.90
32612;DHT22;19030;49.478;8.986;2022-07-11T06:39:59;19.00;99.90
32612;DHT22;19030;49.478;8.986;2022-07-11T06:42:00;19.10;99.90
32612;DHT22;19030;49.478;8.986;2022-07-11T06:44:00;19.20;99.90
32612;DHT22;19030;49.478;8.986;2022-07-11T06:46:01;19.40;99.90
32612;DHT22;19030;49.478;8.986;2022-07-11T06:48:02;19.60;99.90
32612;DHT22;19030;49.478;8.986;2022-07-11T06:50:03;19.80;99.90
32612;DHT22;19030;49.478;8.986;2022-07-11T06:52:03;20.10;99.90
32612;DHT22;19030;49.478;8.986;2022-07-11T06:54:04;20.30;99.90
32612;DHT22;19030;49.478;8.986;2022-07-11T06:56:05;20.50;99.90
32612;DHT22;19030;49.478;8.986;2022-07-11T06:58:06;20.60;99.80
32612;DHT22;19030;49.478;8.986;2022-07-11T07:00:07;20.80;99.40
32612;DHT22;19030;49.478;8.986;2022-07-11T07:02:08;21.10;98.90
32612;DHT22;19030;49.478;8.986;2022-07-11T07:04:09;21.20;97.10
32612;DHT22;19030;49.478;8.986;2022-07-11T07:06:09;21.40;96.50
32612;DHT22;19030;49.478;8.986;2022-07-11T07:08:10;21.60;96.00
32612;DHT22;19030;49.478;8.986;2022-07-11T07:10:10;21.70;95.30
32612;DHT22;19030;49.478;8.986;2022-07-11T07:12:11;21.80;95.30
32612;DHT22;19030;49.478;8.986;2022-07-11T07:14:11;22.10;94.90
32612;DHT22;19030;49.478;8.986;2022-07-11T07:16:12;22.40;94.10
32612;DHT22;19030;49.478;8.986;2022-07-11T07:18:13;22.40;93.00
32612;DHT22;19030;49.478;8.986;2022-07-11T07:20:14;22.40;93.60
32612;DHT22;19030;49.478;8.986;2022-07-11T07:22:14;22.50;93.20
32612;DHT22;19030;49.478;8.986;2022-07-11T07:24:16;22.50;92.70
32612;DHT22;19030;49.478;8.986;2022-07-11T07:26:17;22.70;92.30
32612;DHT22;19030;49.478;8.986;2022-07-11T07:28:17;22.90;91.90
32612;DHT22;19030;49.478;8.986;2022-07-11T07:30:18;23.50;91.00
32612;DHT22;19030;49.478;8.986;2022-07-11T07:32:18;24.20;89.50
32612;DHT22;19030;49.478;8.986;2022-07-11T07:34:20;25.00;83.30
32612;DHT22;19030;49.478;8.986;2022-07-11T07:36:21;25.30;80.40
32612;DHT22;19030;49.478;8.986;2022-07-11T07:38:21;25.60;78.80
32612;DHT22;19030;49.478;8.986;2022-07-11T07:40:22;25.90;76.10
32612;DHT22;19030;49.478;8.986;2022-07-11T07:42:23;26.20;73.70
32612;DHT22;19030;49.478;8.986;2022-07-11T07:44:23;26.50;71.70
32612;DHT22;19030;49.478;8.986;2022-07-11T07:46:24;26.80;69.60
32612;DHT22;19030;49.478;8.986;2022-07-11T07:48:24;26.70;69.60
32612;DHT22;19030;49.478;8.986;2022-07-11T07:50:25;26.90;68.90
32612;DHT22;19030;49.478;8.986;2022-07-11T07:52:26;27.20;67.60
32612;DHT22;19030;49.478;8.986;2022-07-11T07:54:26;27.60;66.90
32612;DHT22;19030;49.478;8.986;2022-07-11T07:56:27;27.90;63.40
32612;DHT22;19030;49.478;8.986;2022-07-11T07:58:27;27.60;62.60
32612;DHT22;19030;49.478;8.986;2022-07-11T08:00:28;27.00;65.20
32612;DHT22;19030;49.478;8.986;2022-07-11T08:02:47;26.70;65.50
32612;DHT22;19030;49.478;8.986;2022-07-11T08:04:48;26.30;66.70
32612;DHT22;19030;49.478;8.986;2022-07-11T08:06:49;26.00;66.50
32612;DHT22;19030;49.478;8.986;2022-07-11T08:08:50;25.60;68.10
32612;DHT22;19030;49.478;8.986;2022-07-11T08:10:50;25.20;70.30
32612;DHT22;19030;49.478;8.986;2022-07-11T08:12:52;24.80;71.90
32612;DHT22;19030;49.478;8.986;2022-07-11T08:14:52;24.30;73.90
32612;DHT22;19030;49.478;8.986;2022-07-11T08:16:53;23.80;76.30
32612;DHT22;19030;49.478;8.986;2022-07-11T08:18:53;23.50;76.20
32612;DHT22;19030;49.478;8.986;2022-07-11T08:20:56;23.10;78.90
32612;DHT22;19030;49.478;8.986;2022-07-11T08:23:03;22.90;80.40
32612;DHT22;19030;49.478;8.986;2022-07-11T08:25:06;22.80;80.80
32612;DHT22;19030;49.478;8.986;2022-07-11T08:27:07;22.90;82.80
32612;DHT22;19030;49.478;8.986;2022-07-11T08:29:07;23.10;81.70
32612;DHT22;19030;49.478;8.986;2022-07-11T08:31:08;23.30;81.60
32612;DHT22;19030;49.478;8.986;2022-07-11T08:33:09;23.50;79.50
32612;DHT22;19030;49.478;8.986;2022-07-11T08:35:10;23.60;76.80
32612;DHT22;19030;49.478;8.986;2022-07-11T08:37:11;23.30;79.40
32612;DHT22;19030;49.478;8.986;2022-07-11T08:39:12;23.00;78.80
32612;DHT22;19030;49.478;8.986;2022-07-11T08:41:13;22.80;80.30
32612;DHT22;19030;49.478;8.986;2022-07-11T08:43:16;22.80;80.30
32612;DHT22;19030;49.478;8.986;2022-07-11T08:45:17;22.80;80.50
32612;DHT22;19030;49.478;8.986;2022-07-11T08:47:18;23.00;81.00
32612;DHT22;19030;49.478;8.986;2022-07-11T08:49:20;23.20;80.20
32612;DHT22;19030;49.478;8.986;2022-07-11T08:51:22;23.40;82.10
32612;DHT22;19030;49.478;8.986;2022-07-11T08:53:24;23.60;78.10
32612;DHT22;19030;49.478;8.986;2022-07-11T08:55:25;23.80;76.60
32612;DHT22;19030;49.478;8.986;2022-07-11T08:57:26;24.10;76.30
32612;DHT22;19030;49.478;8.986;2022-07-11T08:59:27;24.50;73.90
32612;DHT22;19030;49.478;8.986;2022-07-11T09:01:34;24.60;72.10
32612;DHT22;19030;49.478;8.986;2022-07-11T09:03:35;24.50;73.30
32612;DHT22;19030;49.478;8.986;2022-07-11T09:05:36;24.50;72.90
32612;DHT22;19030;49.478;8.986;2022-07-11T09:07:46;24.60;73.40
32612;DHT22;19030;49.478;8.986;2022-07-11T09:09:47;24.90;72.60
32612;DHT22;19030;49.478;8.986;2022-07-11T09:11:55;25.10;70.60
32612;DHT22;19030;49.478;8.986;2022-07-11T09:13:57;25.30;69.80
32612;DHT22;19030;49.478;8.986;2022-07-11T09:16:02;25.60;69.10
32612;DHT22;19030;49.478;8.986;2022-07-11T09:18:50;25.70;67.10
32612;DHT22;19030;49.478;8.986;2022-07-11T09:20:28;25.60;67.50
32612;DHT22;19030;49.478;8.986;2022-07-11T09:22:49;25.70;68.50
32612;DHT22;19030;49.478;8.986;2022-07-11T09:25:10;25.40;68.10
32612;DHT22;19030;49.478;8.986;2022-07-11T09:27:20;24.90;69.30
32612;DHT22;19030;49.478;8.986;2022-07-11T09:29:22;24.40;71.50
32612;DHT22;19030;49.478;8.986;2022-07-11T09:31:28;24.10;72.20
32612;DHT22;19030;49.478;8.986;2022-07-11T09:33:29;24.10;71.90
32612;DHT22;19030;49.478;8.986;2022-07-11T09:35:34;24.20;72.30
32612;DHT22;19030;49.478;8.986;2022-07-11T09:37:42;24.30;72.00
32612;DHT22;19030;49.478;8.986;2022-07-11T09:39:44;24.50;72.40
32612;DHT22;19030;49.478;8.986;2022-07-11T09:41:47;24.70;71.50
32612;DHT22;19030;49.478;8.986;2022-07-11T09:43:50;24.80;69.70
32612;DHT22;19030;49.478;8.986;2022-07-11T09:45:51;24.90;71.00
32612;DHT22;19030;49.478;8.986;2022-07-11T09:47:53;25.10;68.20
32612;DHT22;19030;49.478;8.986;2022-07-11T09:49:54;25.60;66.80
32612;DHT22;19030;49.478;8.986;2022-07-11T09:52:06;26.00;64.40
32612;DHT22;19030;49.478;8.986;2022-07-11T09:54:08;26.40;61.90
32612;DHT22;19030;49.478;8.986;2022-07-11T09:56:09;26.60;61.20
32612;DHT22;19030;49.478;8.986;2022-07-11T09:58:15;26.60;61.30
32612;DHT22;19030;49.478;8.986;2022-07-11T10:00:17;26.40;61.50
32612;DHT22;19030;49.478;8.986;2022-07-11T10:02:17;26.00;60.90
32612;DHT22;19030;49.478;8.986;2022-07-11T10:04:19;25.80;62.10
32612;DHT22;19030;49.478;8.986;2022-07-11T10:06:20;25.80;63.80
32612;DHT22;19030;49.478;8.986;2022-07-11T10:08:22;25.80;63.70
32612;DHT22;19030;49.478;8.986;2022-07-11T10:10:23;25.80;63.30
32612;DHT22;19030;49.478;8.986;2022-07-11T10:12:25;25.80;64.40
32612;DHT22;19030;49.478;8.986;2022-07-11T10:14:26;25.80;63.40
32612;DHT22;19030;49.478;8.986;2022-07-11T10:16:51;25.80;63.90
32612;DHT22;19030;49.478;8.986;2022-07-11T10:19:01;25.70;64.10
32612;DHT22;19030;49.478;8.986;2022-07-11T10:21:17;25.60;63.60
32612;DHT22;19030;49.478;8.986;2022-07-11T10:25:59;25.30;63.90
32612;DHT22;19030;49.478;8.986;2022-07-11T10:30:49;25.20;64.00
32612;DHT22;19030;49.478;8.986;2022-07-11T10:33:09;25.20;64.00
32612;DHT22;19030;49.478;8.986;2022-07-11T10:35:11;25.20;64.60
32612;DHT22;19030;49.478;8.986;2022-07-11T10:37:12;25.20;64.70
32612;DHT22;19030;49.478;8.986;2022-07-11T10:41:29;25.20;67.00
32612;DHT22;19030;49.478;8.986;2022-07-11T10:45:59;25.60;64.20
32612;DHT22;19030;49.478;8.986;2022-07-11T10:48:10;25.90;62.90
32612;DHT22;19030;49.478;8.986;2022-07-11T10:50:35;26.70;60.30
32612;DHT22;19030;49.478;8.986;2022-07-11T10:52:40;27.50;58.30
32612;DHT22;19030;49.478;8.986;2022-07-11T10:55:19;28.60;57.30
32612;DHT22;19030;49.478;8.986;2022-07-11T10:57:39;29.30;55.50
32612;DHT22;19030;49.478;8.986;2022-07-11T11:02:10;29.30;54.10
32612;DHT22;19030;49.478;8.986;2022-07-11T11:06:57;29.10;53.40
32612;DHT22;19030;49.478;8.986;2022-07-11T11:08:58;28.70;53.90
32612;DHT22;19030;49.478;8.986;2022-07-11T11:11:00;28.30;54.00
32612;DHT22;19030;49.478;8.986;2022-07-11T11:17:36;27.00;57.10
32612;DHT22;19030;49.478;8.986;2022-07-11T11:19:52;26.60;57.70
32612;DHT22;19030;49.478;8.986;2022-07-11T11:22:16;26.20;58.70
32612;DHT22;19030;49.478;8.986;2022-07-11T11:24:18;26.00;59.80
32612;DHT22;19030;49.478;8.986;2022-07-11T11:26:20;26.10;59.60
32612;DHT22;19030;49.478;8.986;2022-07-11T11:28:22;26.10;59.30
32612;DHT22;19030;49.478;8.986;2022-07-11T11:30:23;26.20;59.70
32612;DHT22;19030;49.478;8.986;2022-07-11T11:32:29;26.70;59.40
32612;DHT22;19030;49.478;8.986;2022-07-11T11:34:33;27.20;58.20
32612;DHT22;19030;49.478;8.986;2022-07-11T11:36:33;27.40;57.10
32612;DHT22;19030;49.478;8.986;2022-07-11T11:38:36;27.60;57.30
32612;DHT22;19030;49.478;8.986;2022-07-11T11:40:49;28.00;56.00
32612;DHT22;19030;49.478;8.986;2022-07-11T11:42:50;28.00;54.60
32612;DHT22;19030;49.478;8.986;2022-07-11T11:44:55;27.90;55.10
32612;DHT22;19030;49.478;8.986;2022-07-11T11:46:56;27.80;54.80
32612;DHT22;19030;49.478;8.986;2022-07-11T11:48:58;27.80;54.30
32612;DHT22;19030;49.478;8.986;2022-07-11T11:51:13;27.60;55.80
32612;DHT22;19030;49.478;8.986;2022-07-11T11:53:14;27.40;56.10
32612;DHT22;19030;49.478;8.986;2022-07-11T11:55:17;27.30;55.30
32612;DHT22;19030;49.478;8.986;2022-07-11T11:57:20;27.20;55.90
32612;DHT22;19030;49.478;8.986;2022-07-11T11:59:29;27.10;56.80
32612;DHT22;19030;49.478;8.986;2022-07-11T12:01:32;27.10;56.80
32612;DHT22;19030;49.478;8.986;2022-07-11T12:03:49;27.10;56.40
32612;DHT22;19030;49.478;8.986;2022-07-11T12:05:57;26.90;57.40
32612;DHT22;19030;49.478;8.986;2022-07-11T12:07:58;26.90;58.20
32612;DHT22;19030;49.478;8.986;2022-07-11T12:09:59;26.90;56.40
32612;DHT22;19030;49.478;8.986;2022-07-11T12:12:02;26.80;55.90
32612;DHT22;19030;49.478;8.986;2022-07-11T12:14:21;26.90;56.20
32612;DHT22;19030;49.478;8.986;2022-07-11T12:16:22;26.90;56.80
32612;DHT22;19030;49.478;8.986;2022-07-11T12:18:42;26.80;56.40
32612;DHT22;19030;49.478;8.986;2022-07-11T12:20:43;26.50;57.60
32612;DHT22;19030;49.478;8.986;2022-07-11T12:22:47;26.50;58.40
32612;DHT22;19030;49.478;8.986;2022-07-11T12:24:50;26.60;59.10
32612;DHT22;19030;49.478;8.986;2022-07-11T12:26:51;26.70;58.10
32612;DHT22;19030;49.478;8.986;2022-07-11T12:31:05;27.00;58.40
32612;DHT22;19030;49.478;8.986;2022-07-11T12:33:13;27.10;58.70
32612;DHT22;19030;49.478;8.986;2022-07-11T12:35:14;27.30;57.70
32612;DHT22;19030;49.478;8.986;2022-07-11T12:37:19;27.40;57.10
32612;DHT22;19030;49.478;8.986;2022-07-11T12:39:25;27.30;56.80
32612;DHT22;19030;49.478;8.986;2022-07-11T12:41:28;27.20;56.60
32612;DHT22;19030;49.478;8.986;2022-07-11T12:43:51;27.10;56.30
32612;DHT22;19030;49.478;8.986;2022-07-11T12:46:10;27.00;56.70
32612;DHT22;19030;49.478;8.986;2022-07-11T12:48:11;26.80;57.20
32612;DHT22;19030;49.478;8.986;2022-07-11T12:50:25;26.70;57.40
32612;DHT22;19030;49.478;8.986;2022-07-11T12:52:38;26.60;56.60
32612;DHT22;19030;49.478;8.986;2022-07-11T12:54:39;26.40;57.50
32612;DHT22;19030;49.478;8.986;2022-07-11T12:56:51;26.30;58.80
32612;DHT22;19030;49.478;8.986;2022-07-11T12:58:53;26.30;59.70
32612;DHT22;19030;49.478;8.986;2022-07-11T13:00:58;26.20;59.90
32612;DHT22;19030;49.478;8.986;2022-07-11T13:02:59;25.90;58.20
32612;DHT22;19030;49.478;8.986;2022-07-11T13:05:00;25.70;60.10
32612;DHT22;19030;49.478;8.986;2022-07-11T13:07:23;25.70;59.70
32612;DHT22;19030;49.478;8.986;2022-07-11T13:09:42;26.00;59.60
32612;DHT22;19030;49.478;8.986;2022-07-11T13:11:43;26.40;59.10
32612;DHT22;19030;49.478;8.986;2022-07-11T13:13:44;26.70;58.00
32612;DHT22;19030;49.478;8.986;2022-07-11T13:15:47;27.00;56.50